Time;durP1;ratioP1;P1;durP2;ratioP2;P2;SDS_P1;SDS_P2;PMS_P1;PMS_P2;Temp;Humidity;BMP_temperature;BMP_pressure;BME280_temperature;BME280_humidity;BME280_pressure;Samples;Min_cycle;Max_cycle;Signal;HPM_P1;HPM_P2
2021/12/08 00:00:53;;;;;;;0.20;0.10;;;;;;;3.70;100.00;98598.28;5052778;28;20459;-47
2021/12/08 00:03:25;;;;;;;0.20;0.20;;;;;;;3.92;100.00;98584.50;5052425;28;20439;-47
2021/12/08 00:05:52;;;;;;;0.20;0.10;;;;;;;3.75;100.00;98598.16;5052694;28;20447;-47
2021/12/08 00:08:22;;;;;;;0.20;0.10;;;;;;;3.70;100.00;98582.53;5052300;28;20500;-47
2021/12/08 00:13:01;;;;;;;0.20;0.10;;;;;;;3.78;100.00;98584.91;5052304;28;20446;-48
2021/12/08 00:13:37;;;;;;;0.20;0.10;;;;;;;3.78;100.00;98569.16;5032497;28;20909;-47
2021/12/08 00:16:10;;;;;;;0.20;0.10;;;;;;;3.76;100.00;98581.47;5048276;28;21435;-48
2021/12/08 00:18:45;;;;;;;0.20;0.10;;;;;;;3.69;100.00;98572.91;5052300;28;20474;-47
2021/12/08 00:21:12;;;;;;;0.20;0.10;;;;;;;3.90;100.00;98581.94;5039111;28;20442;-48
2021/12/08 00:23:38;;;;;;;0.20;0.10;;;;;;;4.09;100.00;98580.47;5052151;28;20459;-48
2021/12/08 00:26:06;;;;;;;0.20;0.10;;;;;;;3.77;100.00;98589.31;5052037;28;20447;-47
2021/12/08 00:28:33;;;;;;;0.20;0.10;;;;;;;3.97;100.00;98577.34;5052132;28;20474;-48
2021/12/08 00:31:02;;;;;;;0.20;0.10;;;;;;;3.74;100.00;98578.03;5052155;28;20929;-47
2021/12/08 00:33:30;;;;;;;0.20;0.10;;;;;;;3.69;100.00;98588.66;5066956;28;21062;-47
2021/12/08 00:35:59;;;;;;;0.20;0.10;;;;;;;3.91;100.00;98591.53;5052201;28;20850;-48
2021/12/08 00:38:26;;;;;;;0.20;0.10;;;;;;;3.75;100.00;98588.50;5052140;28;20447;-48
2021/12/08 00:40:53;;;;;;;0.20;0.10;;;;;;;3.95;100.00;98597.56;5052000;28;20496;-48
2021/12/08 00:43:21;;;;;;;0.20;0.10;;;;;;;3.80;100.00;98607.59;5039087;28;20506;-47
2021/12/08 00:45:49;;;;;;;0.20;0.10;;;;;;;3.97;100.00;98614.13;5032078;28;20554;-48
2021/12/08 00:48:19;;;;;;;0.20;0.10;;;;;;;4.24;100.00;98623.84;5043940;28;20451;-50
2021/12/08 00:50:46;;;;;;;0.20;0.20;;;;;;;4.21;100.00;98629.19;5039507;28;20451;-47
2021/12/08 00:53:14;;;;;;;0.20;0.10;;;;;;;4.07;100.00;98626.13;5051932;28;20903;-47
2021/12/08 00:55:40;;;;;;;0.20;0.10;;;;;;;4.16;100.00;98624.09;5052053;28;20544;-48
2021/12/08 00:58:07;;;;;;;0.20;0.10;;;;;;;3.98;100.00;98622.00;5051823;28;20447;-47
2021/12/08 01:00:40;;;;;;;0.30;0.20;;;;;;;4.11;100.00;98622.50;5051719;28;20467;-48
2021/12/08 01:03:09;;;;;;;0.20;0.10;;;;;;;4.16;100.00;98617.97;5051973;28;20435;-48
2021/12/08 01:05:43;;;;;;;0.20;0.10;;;;;;;4.05;100.00;98618.28;5052088;28;20827;-47
2021/12/08 01:08:10;;;;;;;0.20;0.10;;;;;;;4.07;100.00;98626.13;5051889;28;20489;-48
2021/12/08 01:10:41;;;;;;;0.20;0.10;;;;;;;4.26;100.00;98627.31;5051825;28;20463;-48
2021/12/08 01:13:11;;;;;;;0.20;0.10;;;;;;;4.29;100.00;98631.63;5051484;28;20843;-47
2021/12/08 01:15:41;;;;;;;0.20;0.10;;;;;;;4.36;100.00;98639.25;5051924;28;20493;-47
2021/12/08 01:18:08;;;;;;;0.20;0.10;;;;;;;4.29;100.00;98639.50;5051739;28;20451;-49
2021/12/08 01:20:35;;;;;;;0.20;0.20;;;;;;;4.36;100.00;98644.53;5039246;28;20514;-48
2021/12/08 01:23:03;;;;;;;0.20;0.10;;;;;;;4.09;100.00;98634.81;5051357;28;20967;-48
2021/12/08 01:25:30;;;;;;;0.20;0.10;;;;;;;4.23;100.00;98626.53;5051581;28;20512;-48
2021/12/08 01:27:57;;;;;;;0.20;0.13;;;;;;;4.03;100.00;98617.47;5035320;28;21010;-47
2021/12/08 01:30:24;;;;;;;0.20;0.10;;;;;;;3.83;100.00;98625.06;5048976;28;20470;-47
2021/12/08 01:32:55;;;;;;;0.20;0.10;;;;;;;4.00;100.00;98625.44;5055548;28;20517;-47
2021/12/08 01:35:23;;;;;;;0.20;0.10;;;;;;;3.90;100.00;98624.00;5054179;28;20971;-48
2021/12/08 01:37:49;;;;;;;0.20;0.10;;;;;;;3.90;100.00;98609.97;5043515;28;20892;-47
2021/12/08 01:40:18;;;;;;;0.20;0.10;;;;;;;3.93;100.00;98612.53;5054951;28;20478;-47
2021/12/08 01:42:47;;;;;;;0.20;0.10;;;;;;;3.82;100.00;98612.81;5046802;28;20444;-48
2021/12/08 01:48:09;;;;;;;0.20;0.10;;;;;;;3.94;100.00;98601.09;5055083;28;20860;-47
2021/12/08 01:50:38;;;;;;;0.20;0.10;;;;;;;3.83;100.00;98606.66;5055236;28;20462;-48
2021/12/08 01:53:07;;;;;;;0.20;0.10;;;;;;;4.02;100.00;98607.00;5054777;28;20995;-48
2021/12/08 01:55:34;;;;;;;0.20;0.10;;;;;;;3.88;100.00;98596.91;5055059;28;20922;-47
2021/12/08 01:58:01;;;;;;;0.20;0.10;;;;;;;3.82;100.00;98591.78;5054781;28;20478;-47
2021/12/08 02:00:34;;;;;;;0.20;0.10;;;;;;;3.74;100.00;98581.53;5055052;28;20471;-47
2021/12/08 02:03:00;;;;;;;0.20;0.10;;;;;;;3.88;100.00;98577.63;5054655;28;20477;-47
2021/12/08 02:05:27;;;;;;;0.20;0.10;;;;;;;3.86;100.00;98567.16;5055055;28;20883;-49
2021/12/08 02:07:54;;;;;;;0.20;0.10;;;;;;;3.89;100.00;98571.47;5054775;28;20526;-47
2021/12/08 02:10:22;;;;;;;0.20;0.10;;;;;;;3.80;100.00;98576.06;5054837;28;20520;-47
2021/12/08 02:12:49;;;;;;;0.20;0.20;;;;;;;3.87;100.00;98566.25;5054534;28;20490;-47
2021/12/08 02:15:17;;;;;;;0.20;0.10;;;;;;;4.03;100.00;98578.03;5054569;28;20447;-47
2021/12/08 02:17:47;;;;;;;0.20;0.10;;;;;;;3.91;100.00;98569.66;5054261;28;20447;-47
2021/12/08 02:20:17;;;;;;;0.20;0.10;;;;;;;3.97;100.00;98575.56;5034741;28;20545;-47
2021/12/08 02:22:44;;;;;;;0.20;0.10;;;;;;;4.00;100.00;98574.66;5051108;28;20443;-47
2021/12/08 02:25:15;;;;;;;0.20;0.10;;;;;;;4.07;100.00;98565.66;5054538;28;20496;-48
2021/12/08 02:27:42;;;;;;;0.20;0.10;;;;;;;3.85;100.00;98566.31;5054336;28;20500;-48
2021/12/08 02:30:25;;;;;;;2.63;1.53;;;;;;;4.10;100.00;98573.44;5054092;28;20471;-48
2021/12/08 02:49:11;;;;;;;0.20;0.10;;;;;;;4.14;100.00;98569.84;5046667;28;20468;-48
2021/12/08 02:51:38;;;;;;;0.20;0.20;;;;;;;4.06;100.00;98562.16;5048255;28;20446;-47
2021/12/08 02:54:06;;;;;;;0.20;0.10;;;;;;;4.00;100.00;98562.38;5053816;28;20486;-48
2021/12/08 02:56:33;;;;;;;0.20;0.10;;;;;;;3.97;100.00;98569.47;5053423;28;20447;-49
2021/12/08 02:59:00;;;;;;;0.20;0.10;;;;;;;3.95;100.00;98568.66;5053337;28;20474;-47
2021/12/08 03:01:28;;;;;;;0.20;0.10;;;;;;;3.95;100.00;98563.38;5053503;28;20508;-47
2021/12/08 03:03:55;;;;;;;0.20;0.10;;;;;;;3.92;100.00;98568.75;5053649;28;20450;-47
2021/12/08 03:06:21;;;;;;;0.20;0.10;;;;;;;3.99;100.00;98559.78;5053517;28;20450;-47
2021/12/08 03:08:48;;;;;;;0.20;0.10;;;;;;;3.94;100.00;98562.53;5053608;28;20479;-48
2021/12/08 03:11:16;;;;;;;0.20;0.10;;;;;;;4.13;100.00;98566.34;5053322;28;20454;-47
2021/12/08 03:13:59;;;;;;;1.37;0.90;;;;;;;4.14;100.00;98564.56;5053351;28;20494;-49
2021/12/08 03:16:26;;;;;;;0.20;0.10;;;;;;;4.22;100.00;98574.84;5053674;28;20443;-47
2021/12/08 03:18:53;;;;;;;0.20;0.10;;;;;;;4.08;100.00;98565.59;5053467;28;20525;-47
2021/12/08 03:21:26;;;;;;;0.20;0.13;;;;;;;4.08;100.00;98568.22;5040151;28;20591;-47
2021/12/08 03:24:12;;;;;;;0.20;0.10;;;;;;;4.04;100.00;98560.50;5053180;28;20439;-48
2021/12/08 03:29:28;;;;;;;0.20;0.10;;;;;;;4.02;100.00;98567.56;5053130;28;20470;-47
2021/12/08 03:32:04;;;;;;;0.20;0.10;;;;;;;4.11;100.00;98576.06;5053080;28;20439;-48
2021/12/08 03:34:35;;;;;;;0.20;0.10;;;;;;;4.08;100.00;98570.88;5053006;28;20958;-49
2021/12/08 03:37:04;;;;;;;0.30;0.30;;;;;;;4.03;100.00;98569.28;5039402;28;20448;-48
2021/12/08 03:39:32;;;;;;;0.20;0.10;;;;;;;4.01;100.00;98571.97;5052753;28;20479;-49
2021/12/08 03:42:00;;;;;;;0.20;0.10;;;;;;;4.01;100.00;98563.22;5050575;28;20451;-47
2021/12/08 03:44:28;;;;;;;0.20;0.10;;;;;;;3.93;100.00;98554.69;5042885;28;20455;-47
2021/12/08 03:47:00;;;;;;;0.20;0.13;;;;;;;4.02;100.00;98562.31;5052775;28;20455;-47
2021/12/08 03:49:28;;;;;;;0.20;0.10;;;;;;;4.00;100.00;98553.63;5041978;28;20524;-48
2021/12/08 03:52:03;;;;;;;7.80;1.90;;;;;;;4.02;100.00;98557.06;5050141;28;20451;-47
2021/12/08 03:54:29;;;;;;;0.30;0.30;;;;;;;4.00;100.00;98545.75;5052874;28;20473;-47
2021/12/08 03:56:57;;;;;;;0.20;0.10;;;;;;;3.99;100.00;98544.00;5052978;28;20517;-47
2021/12/08 03:59:24;;;;;;;0.20;0.10;;;;;;;4.01;100.00;98534.31;5052507;28;20471;-48
2021/12/08 04:01:51;;;;;;;0.20;0.10;;;;;;;3.97;100.00;98546.66;5052298;28;20900;-47
2021/12/08 04:04:17;;;;;;;0.20;0.10;;;;;;;3.92;100.00;98550.34;5052525;28;20443;-47
2021/12/08 04:06:51;;;;;;;0.20;0.10;;;;;;;3.89;100.00;98540.78;5052485;28;20866;-48
2021/12/08 04:12:00;;;;;;;0.20;0.10;;;;;;;3.97;100.00;98527.41;5052333;28;20528;-48
2021/12/08 04:14:31;;;;;;;0.20;0.10;;;;;;;4.00;100.00;98522.06;5052118;28;20486;-48
2021/12/08 04:17:03;;;;;;;0.20;0.10;;;;;;;4.11;100.00;98533.09;5052355;28;20498;-48
2021/12/08 04:19:30;;;;;;;0.20;0.10;;;;;;;4.06;100.00;98527.13;5048716;28;20470;-48
2021/12/08 04:22:03;;;;;;;0.20;0.10;;;;;;;4.01;100.00;98534.31;5042678;28;20446;-47
2021/12/08 04:24:29;;;;;;;0.30;0.27;;;;;;;4.03;100.00;98541.25;5052080;28;20442;-47
2021/12/08 04:27:04;;;;;;;0.20;0.20;;;;;;;4.04;100.00;98555.25;5052521;28;20447;-47
2021/12/08 04:29:33;;;;;;;0.20;0.10;;;;;;;4.04;100.00;98553.47;5052302;28;20461;-48
2021/12/08 04:32:02;;;;;;;0.20;0.10;;;;;;;4.05;100.00;98547.31;5052215;28;20501;-47
2021/12/08 04:34:33;;;;;;;0.20;0.10;;;;;;;4.14;100.00;98560.19;5052209;28;20486;-48
2021/12/08 04:37:04;;;;;;;0.20;0.10;;;;;;;4.13;100.00;98562.84;5038615;28;20505;-50
2021/12/08 04:42:58;;;;;;;0.30;0.20;;;;;;;4.36;100.00;98575.28;5046429;28;20502;-47
2021/12/08 04:45:21;;;;;;;0.20;0.10;;;;;;;4.37;100.00;98574.38;5047098;28;20451;-48
2021/12/08 04:54:00;;;;;;;0.20;0.10;;;;;;;4.61;100.00;98565.69;5051905;28;20499;-47
2021/12/08 05:10:14;;;;;;;0.20;0.10;;;;;;;4.97;100.00;98561.00;5055606;28;20516;-48
2021/12/08 05:12:40;;;;;;;0.20;0.20;;;;;;;5.04;100.00;98562.50;5055522;28;20539;-47
2021/12/08 05:15:32;;;;;;;0.20;0.20;;;;;;;4.96;100.00;98561.06;5055678;28;20454;-46
2021/12/08 05:18:02;;;;;;;0.20;0.10;;;;;;;4.90;100.00;98562.09;5056145;28;20447;-46
2021/12/08 05:20:48;;;;;;;0.20;0.10;;;;;;;4.91;100.00;98571.72;5044164;28;20472;-47
2021/12/08 05:23:31;;;;;;;0.20;0.10;;;;;;;4.96;100.00;98577.72;5035697;28;20871;-46
2021/12/08 05:26:03;;;;;;;0.20;0.20;;;;;;;4.86;100.00;98576.28;5052147;28;20511;-49
2021/12/08 05:28:30;;;;;;;0.20;0.10;;;;;;;5.09;100.00;98567.63;5055733;28;20497;-46
2021/12/08 05:31:05;;;;;;;0.67;0.67;;;;;;;4.98;100.00;98580.28;5055675;28;20450;-46
2021/12/08 05:33:33;;;;;;;0.30;0.20;;;;;;;4.94;100.00;98560.25;5054436;28;20581;-47
2021/12/08 05:36:00;;;;;;;0.20;0.10;;;;;;;4.89;100.00;98567.41;5049175;28;20462;-46
2021/12/08 05:38:26;;;;;;;0.20;0.10;;;;;;;5.12;100.00;98564.03;5048921;28;20454;-46
2021/12/08 05:40:59;;;;;;;0.20;0.20;;;;;;;5.21;100.00;98572.47;5055614;28;20504;-48
2021/12/08 05:43:26;;;;;;;0.20;0.10;;;;;;;4.97;100.00;98579.44;5041557;28;20439;-47
2021/12/08 05:45:54;;;;;;;0.20;0.13;;;;;;;4.82;100.00;98577.31;5054987;28;20481;-47
2021/12/08 05:48:21;;;;;;;0.20;0.10;;;;;;;4.72;100.00;98579.38;5053410;28;20953;-47
2021/12/08 05:50:57;;;;;;;1.60;1.60;;;;;;;4.77;100.00;98576.59;5043067;28;20446;-48
2021/12/08 05:53:24;;;;;;;0.20;0.10;;;;;;;4.80;100.00;98575.63;5054910;28;20581;-47
2021/12/08 05:55:51;;;;;;;0.20;0.10;;;;;;;4.73;100.00;98567.06;5054805;28;20450;-48
2021/12/08 05:58:19;;;;;;;0.20;0.10;;;;;;;4.93;100.00;98567.25;5054689;28;20450;-48
2021/12/08 06:01:06;;;;;;;0.20;0.10;;;;;;;4.79;100.00;98572.13;5054560;28;21037;-48
2021/12/08 06:03:34;;;;;;;0.20;0.20;;;;;;;4.69;100.00;98584.75;5054870;28;20482;-47
2021/12/08 06:06:01;;;;;;;1.40;1.40;;;;;;;4.52;100.00;98584.41;5054704;28;20447;-48
2021/12/08 06:08:28;;;;;;;0.20;0.10;;;;;;;4.80;100.00;98567.72;5054416;28;20451;-47
2021/12/08 06:10:59;;;;;;;0.20;0.10;;;;;;;4.65;100.00;98558.56;5054391;28;20446;-47
2021/12/08 06:13:26;;;;;;;0.30;0.30;;;;;;;4.60;100.00;98560.50;5054365;28;20575;-48
2021/12/08 06:15:53;;;;;;;0.20;0.20;;;;;;;4.57;100.00;98571.97;5054411;28;20446;-47
2021/12/08 06:18:24;;;;;;;0.20;0.10;;;;;;;4.44;100.00;98579.41;5054271;28;20442;-47
2021/12/08 06:20:58;;;;;;;0.20;0.10;;;;;;;4.43;100.00;98582.09;5040960;28;20455;-48
2021/12/08 06:23:25;;;;;;;0.20;0.10;;;;;;;4.47;100.00;98583.69;5054567;28;20510;-47
2021/12/08 06:25:52;;;;;;;0.20;0.10;;;;;;;4.36;100.00;98580.53;5054081;28;21009;-46
2021/12/08 06:28:18;;;;;;;0.20;0.10;;;;;;;4.10;100.00;98578.69;5054463;28;20545;-46
2021/12/08 06:30:45;;;;;;;0.20;0.10;;;;;;;4.04;100.00;98576.28;5054217;28;20512;-46
2021/12/08 06:33:15;;;;;;;0.20;0.13;;;;;;;3.80;100.00;98578.72;5054112;28;20490;-47
2021/12/08 06:35:48;;;;;;;0.20;0.10;;;;;;;4.06;100.00;98574.44;5050086;28;20478;-47
2021/12/08 06:38:18;;;;;;;0.20;0.10;;;;;;;3.89;100.00;98582.84;5045490;28;20477;-46
2021/12/08 06:40:53;;;;;;;0.20;0.10;;;;;;;3.95;100.00;98585.28;5053863;28;20963;-47
2021/12/08 06:43:27;;;;;;;0.20;0.20;;;;;;;3.97;100.00;98572.09;5034479;28;20482;-47
2021/12/08 06:45:57;;;;;;;0.20;0.10;;;;;;;3.85;100.00;98566.31;5041720;28;20504;-47
2021/12/08 06:48:28;;;;;;;0.20;0.10;;;;;;;3.91;100.00;98570.50;5052268;28;20477;-47
2021/12/08 06:51:16;;;;;;;0.20;0.20;;;;;;;4.01;100.00;98590.38;5043050;28;20478;-48
2021/12/08 06:53:45;;;;;;;0.20;0.10;;;;;;;3.89;100.00;98581.97;5053716;28;20479;-47
2021/12/08 06:56:22;;;;;;;0.20;0.10;;;;;;;3.81;100.00;98598.81;5053955;28;20447;-48
2021/12/08 06:58:55;;;;;;;0.20;0.10;;;;;;;3.85;100.00;98602.25;5053722;28;20903;-50
2021/12/08 07:07:02;;;;;;;0.20;0.10;;;;;;;3.72;100.00;98603.50;5053610;28;20481;-47
2021/12/08 07:09:31;;;;;;;0.20;0.10;;;;;;;3.73;100.00;98600.81;5053250;28;20521;-48
2021/12/08 07:12:05;;;;;;;0.20;0.10;;;;;;;3.74;100.00;98602.53;5053528;28;20524;-47
2021/12/08 07:14:32;;;;;;;0.20;0.10;;;;;;;3.70;100.00;98608.81;5053216;28;20522;-48
2021/12/08 07:17:05;;;;;;;0.20;0.10;;;;;;;3.73;100.00;98621.84;5053711;28;20474;-47
2021/12/08 07:19:44;;;;;;;0.20;0.20;;;;;;;3.65;100.00;98615.06;5048287;28;20972;-47
2021/12/08 07:22:19;;;;;;;0.20;0.10;;;;;;;3.69;100.00;98627.19;5046560;28;20442;-47
2021/12/08 07:24:49;;;;;;;0.20;0.10;;;;;;;3.57;100.00;98625.81;5052542;28;20902;-47
2021/12/08 07:27:23;;;;;;;0.20;0.10;;;;;;;3.55;100.00;98611.81;5053052;28;20501;-47
2021/12/08 07:29:50;;;;;;;0.20;0.10;;;;;;;3.50;100.00;98593.56;5053122;28;20462;-47
2021/12/08 07:32:27;;;;;;;0.20;0.10;;;;;;;3.42;100.00;98608.66;5053001;28;20501;-47
2021/12/08 07:34:58;;;;;;;0.20;0.10;;;;;;;3.54;100.00;98616.22;5052424;28;20486;-47
2021/12/08 07:37:34;;;;;;;0.20;0.10;;;;;;;3.44;100.00;98619.16;5040024;28;20459;-47
2021/12/08 07:40:10;;;;;;;0.20;0.10;;;;;;;3.54;100.00;98617.97;5052737;28;21003;-47
2021/12/08 07:42:44;;;;;;;0.20;0.10;;;;;;;3.54;100.00;98604.84;5040562;28;20524;-47
2021/12/08 07:45:18;;;;;;;0.20;0.10;;;;;;;3.57;100.00;98599.53;5048255;28;20485;-48
2021/12/08 07:47:46;;;;;;;0.20;0.10;;;;;;;3.65;100.00;98623.81;5052787;28;20443;-47
2021/12/08 07:50:21;;;;;;;0.20;0.10;;;;;;;3.69;100.00;98630.69;5035858;28;20466;-47
2021/12/08 07:52:50;;;;;;;0.20;0.10;;;;;;;3.68;100.00;98625.47;5052717;28;20504;-47
2021/12/08 07:55:31;;;;;;;0.20;0.10;;;;;;;3.66;100.00;98627.28;5052394;28;20486;-47
2021/12/08 07:57:58;;;;;;;0.20;0.10;;;;;;;3.63;100.00;98623.00;5052974;28;20443;-47
2021/12/08 08:00:45;;;;;;;0.20;0.10;;;;;;;3.65;100.00;98600.16;5052313;28;20471;-47
2021/12/08 08:03:14;;;;;;;0.63;0.63;;;;;;;3.69;100.00;98582.53;5052383;28;20447;-47
2021/12/08 08:05:42;;;;;;;0.20;0.10;;;;;;;3.77;100.00;98591.09;5052378;28;20454;-47
2021/12/08 08:08:13;;;;;;;0.20;0.10;;;;;;;3.90;100.00;98578.44;5052362;28;20867;-47
2021/12/08 08:10:59;;;;;;;0.30;0.30;;;;;;;3.85;100.00;98586.47;5052611;28;20896;-47
2021/12/08 08:13:27;;;;;;;0.20;0.10;;;;;;;3.88;100.00;98596.03;5052248;28;20940;-47
2021/12/08 08:16:04;;;;;;;0.30;0.30;;;;;;;3.92;100.00;98601.16;5052052;28;20855;-47
2021/12/08 08:18:35;;;;;;;0.20;0.10;;;;;;;3.90;100.00;98605.59;5052386;28;20506;-47
2021/12/08 08:21:08;;;;;;;0.20;0.10;;;;;;;3.98;100.00;98606.25;5038949;28;20450;-48
2021/12/08 08:23:35;;;;;;;0.20;0.10;;;;;;;4.02;100.00;98615.75;5052419;28;20469;-48
2021/12/08 08:26:07;;;;;;;0.20;0.10;;;;;;;4.05;100.00;98607.75;5052142;28;20483;-47
2021/12/08 08:28:35;;;;;;;0.53;0.50;;;;;;;4.11;100.00;98615.50;5051942;28;20881;-47
2021/12/08 08:31:07;;;;;;;0.20;0.10;;;;;;;4.19;100.00;98611.75;5051983;28;20970;-47
2021/12/08 08:33:37;;;;;;;0.20;0.13;;;;;;;4.13;100.00;98625.97;5052109;28;20521;-47
2021/12/08 08:36:10;;;;;;;2.50;2.47;;;;;;;4.20;100.00;98631.88;5032184;28;20448;-47
2021/12/08 08:38:50;;;;;;;0.20;0.10;;;;;;;4.12;100.00;98637.38;5046594;28;20524;-48
2021/12/08 08:41:19;;;;;;;0.20;0.10;;;;;;;4.20;100.00;98635.38;5052431;28;20454;-47
2021/12/08 08:43:49;;;;;;;0.20;0.10;;;;;;;4.18;100.00;98637.19;5038826;28;20877;-47
2021/12/08 08:46:20;;;;;;;0.30;0.30;;;;;;;4.16;100.00;98626.72;5052169;28;20454;-47
2021/12/08 08:49:03;;;;;;;0.30;0.20;;;;;;;4.28;100.00;98628.13;5047066;28;20980;-47
2021/12/08 08:51:38;;;;;;;0.20;0.20;;;;;;;4.29;100.00;98637.75;5045053;28;20930;-47
2021/12/08 08:54:24;;;;;;;0.20;0.10;;;;;;;4.34;100.00;98646.34;5032115;28;20487;-48
2021/12/08 08:56:56;;;;;;;0.20;0.10;;;;;;;4.22;100.00;98645.84;5048998;28;20868;-50
2021/12/08 08:59:28;;;;;;;0.20;0.10;;;;;;;4.35;100.00;98642.78;5052052;28;20943;-47
2021/12/08 09:01:56;;;;;;;1.03;1.03;;;;;;;4.37;100.00;98643.59;5051871;28;20461;-48
2021/12/08 09:04:45;;;;;;;0.20;0.10;;;;;;;4.32;100.00;98652.56;5052206;28;20442;-49
2021/12/08 09:07:21;;;;;;;0.20;0.10;;;;;;;4.29;100.00;98648.25;5051853;28;20478;-49
2021/12/08 09:09:49;;;;;;;0.20;0.10;;;;;;;4.26;100.00;98652.75;5051958;28;20467;-48
2021/12/08 09:12:34;;;;;;;0.20;0.10;;;;;;;4.24;100.00;98642.25;5051926;28;20482;-48
2021/12/08 09:15:16;;;;;;;0.20;0.10;;;;;;;4.39;100.00;98638.34;5051902;28;20490;-48
2021/12/08 09:17:54;;;;;;;0.20;0.10;;;;;;;4.49;100.00;98638.88;5051443;28;20453;-48
2021/12/08 09:20:29;;;;;;;0.20;0.10;;;;;;;4.46;100.00;98640.72;5041142;28;20884;-48
2021/12/08 09:23:00;;;;;;;0.20;0.10;;;;;;;4.49;100.00;98652.03;5050621;28;20473;-48
2021/12/08 09:25:40;;;;;;;0.30;0.30;;;;;;;4.47;100.00;98652.94;5051928;28;20439;-48
2021/12/08 09:28:14;;;;;;;0.20;0.20;;;;;;;4.52;100.00;98671.22;5051730;28;20439;-49
2021/12/08 09:30:43;;;;;;;0.20;0.10;;;;;;;4.54;100.00;98682.59;5051604;28;20989;-48
2021/12/08 09:33:25;;;;;;;0.20;0.10;;;;;;;4.67;100.00;98694.47;5051447;28;20446;-48
2021/12/08 09:36:01;;;;;;;0.20;0.10;;;;;;;4.53;100.00;98688.75;5045200;28;20491;-48
2021/12/08 09:38:36;;;;;;;0.20;0.10;;;;;;;4.62;100.00;98687.59;5044856;28;20442;-48
2021/12/08 09:41:10;;;;;;;0.20;0.10;;;;;;;4.72;100.00;98689.03;5034004;28;20459;-48
2021/12/08 09:43:43;;;;;;;0.40;0.40;;;;;;;4.85;100.00;98695.66;5038313;28;20502;-47
2021/12/08 09:46:20;;;;;;;0.27;0.23;;;;;;;4.90;100.00;98706.88;5051792;28;20447;-47
2021/12/08 09:48:48;;;;;;;0.30;0.20;;;;;;;4.99;100.00;98709.25;5050333;28;20545;-47
2021/12/08 09:51:20;;;;;;;0.20;0.10;;;;;;;4.85;100.00;98711.44;5046581;28;20512;-47
2021/12/08 09:53:47;;;;;;;0.20;0.10;;;;;;;4.79;100.00;98708.13;5054796;28;20446;-48
2021/12/08 09:56:18;;;;;;;0.20;0.20;;;;;;;4.83;100.00;98712.41;5055100;28;20833;-47
2021/12/08 09:58:45;;;;;;;0.20;0.10;;;;;;;4.82;100.00;98708.06;5054884;28;20466;-46
2021/12/08 10:01:18;;;;;;;0.20;0.20;;;;;;;4.76;100.00;98711.72;5055257;28;20451;-46
2021/12/08 10:03:47;;;;;;;0.20;0.10;;;;;;;4.79;100.00;98705.50;5055086;28;20447;-46
2021/12/08 10:06:16;;;;;;;0.20;0.10;;;;;;;4.80;100.00;98705.47;5055031;28;20451;-46
2021/12/08 10:08:45;;;;;;;0.30;0.20;;;;;;;4.82;100.00;98706.28;5054786;28;20473;-46
2021/12/08 10:11:12;;;;;;;1.00;0.97;;;;;;;4.89;100.00;98699.91;5054836;28;20458;-46
2021/12/08 10:13:40;;;;;;;0.20;0.10;;;;;;;5.14;100.00;98688.59;5054594;28;20447;-47
2021/12/08 10:16:08;;;;;;;0.20;0.13;;;;;;;5.17;100.00;98689.34;5054553;28;21027;-46
2021/12/08 10:18:35;;;;;;;0.20;0.20;;;;;;;5.18;100.00;98708.66;5054536;28;20451;-46
2021/12/08 10:21:04;;;;;;;0.30;0.20;;;;;;;5.18;100.00;98700.75;5041061;28;20458;-47
2021/12/08 10:23:34;;;;;;;0.20;0.10;;;;;;;5.21;100.00;98682.22;5054704;28;20494;-46
2021/12/08 10:26:07;;;;;;;0.40;0.40;;;;;;;5.23;100.00;98683.03;5054371;28;20446;-47
2021/12/08 10:28:34;;;;;;;0.20;0.20;;;;;;;5.24;100.00;98692.66;5054467;28;20932;-46
2021/12/08 10:31:25;;;;;;;0.20;0.10;;;;;;;5.21;100.00;98691.00;5054240;28;20989;-46
2021/12/08 10:36:54;;;;;;;0.20;0.10;;;;;;;5.07;100.00;98701.09;5040123;28;20964;-46
2021/12/08 10:39:46;;;;;;;0.20;0.10;;;;;;;5.28;100.00;98689.88;5041345;28;20475;-47
2021/12/08 10:42:17;;;;;;;0.20;0.10;;;;;;;5.41;100.00;98690.31;5050237;28;20818;-46
2021/12/08 10:47:37;;;;;;;0.30;0.20;;;;;;;5.19;100.00;98678.75;5034294;28;20466;-47
2021/12/08 10:55:33;;;;;;;0.20;0.10;;;;;;;5.27;100.00;98674.13;5053717;28;20536;-46
2021/12/08 10:57:59;;;;;;;0.20;0.10;;;;;;;5.23;100.00;98665.47;5053402;28;20529;-47
2021/12/08 11:00:30;;;;;;;0.20;0.10;;;;;;;5.30;100.00;98656.44;5052919;28;20896;-48
2021/12/08 11:03:11;;;;;;;0.30;0.30;;;;;;;5.26;100.00;98653.97;5053862;28;20435;-47
2021/12/08 11:05:42;;;;;;;0.20;0.10;;;;;;;5.36;100.00;98650.09;5053628;28;20492;-47
2021/12/08 11:08:28;;;;;;;0.57;0.57;;;;;;;5.38;100.00;98656.19;5053758;28;20447;-46
2021/12/08 11:11:10;;;;;;;0.20;0.20;;;;;;;5.52;100.00;98650.44;5068986;28;20446;-47
2021/12/08 11:13:38;;;;;;;0.20;0.10;;;;;;;5.46;100.00;98648.00;5053586;28;20443;-46
2021/12/08 11:16:14;;;;;;;0.20;0.10;;;;;;;5.59;100.00;98646.66;5053360;28;20524;-46
2021/12/08 11:18:43;;;;;;;0.20;0.20;;;;;;;5.51;100.00;98643.44;5053375;28;20582;-46
2021/12/08 11:21:24;;;;;;;0.20;0.10;;;;;;;5.74;100.00;98651.38;5039780;28;20509;-46
2021/12/08 11:24:31;;;;;;;0.27;0.20;;;;;;;5.55;100.00;98651.19;5053273;28;20447;-46
2021/12/08 11:26:59;;;;;;;0.20;0.20;;;;;;;5.54;100.00;98653.88;5053383;28;20451;-46
2021/12/08 11:29:29;;;;;;;0.40;0.40;;;;;;;5.55;100.00;98652.97;5053169;28;20536;-47
2021/12/08 11:32:05;;;;;;;0.30;0.30;;;;;;;5.62;100.00;98650.06;5053091;28;20443;-46
2021/12/08 11:34:36;;;;;;;0.20;0.10;;;;;;;5.54;100.00;98660.00;5042940;28;20858;-46
2021/12/08 11:37:32;;;;;;;0.20;0.10;;;;;;;5.61;100.00;98653.59;5040056;28;20444;-46
2021/12/08 11:40:01;;;;;;;0.20;0.10;;;;;;;5.60;100.00;98656.28;5053337;28;20482;-48
2021/12/08 11:42:35;;;;;;;0.20;0.20;;;;;;;5.68;100.00;98653.41;5047076;28;20505;-48
2021/12/08 11:45:16;;;;;;;0.20;0.20;;;;;;;5.80;100.00;98647.69;5047227;28;20454;-49
2021/12/08 11:47:44;;;;;;;0.20;0.20;;;;;;;6.03;100.00;98652.16;5052880;28;20500;-49
2021/12/08 11:50:15;;;;;;;0.20;0.20;;;;;;;6.17;100.00;98645.47;5039197;28;20697;-49
2021/12/08 11:52:42;;;;;;;0.20;0.10;;;;;;;6.25;100.00;98647.81;5052681;28;20451;-48
2021/12/08 11:55:12;;;;;;;0.27;0.23;;;;;;;6.21;100.00;98643.56;5052497;28;20490;-48
2021/12/08 11:57:44;;;;;;;0.20;0.10;;;;;;;6.51;100.00;98652.09;5052747;28;20458;-48
2021/12/08 12:00:16;;;;;;;0.20;0.20;;;;;;;6.52;100.00;98652.03;5052424;28;20889;-49
2021/12/08 12:02:54;;;;;;;0.20;0.17;;;;;;;6.08;100.00;98656.34;5052533;28;20485;-48
2021/12/08 12:05:30;;;;;;;0.83;0.83;;;;;;;6.04;100.00;98657.38;5052476;28;20442;-48
2021/12/08 12:07:57;;;;;;;0.20;0.10;;;;;;;6.12;100.00;98655.31;5052268;28;20932;-48
2021/12/08 12:10:27;;;;;;;0.30;0.20;;;;;;;6.04;100.00;98656.53;5052269;28;20472;-49
2021/12/08 12:12:59;;;;;;;0.30;0.20;;;;;;;6.06;100.00;98660.81;5052287;28;20508;-48
2021/12/08 12:15:26;;;;;;;0.20;0.10;;;;;;;6.16;100.00;98653.41;5052221;28;20483;-48
2021/12/08 12:17:53;;;;;;;0.30;0.30;;;;;;;6.08;100.00;98655.50;5052282;28;20508;-49
2021/12/08 12:20:48;;;;;;;0.20;0.20;;;;;;;6.13;100.00;98654.41;5042208;28;20966;-49
2021/12/08 12:23:36;;;;;;;0.20;0.10;;;;;;;6.11;100.00;98650.09;5032397;28;20451;-49
2021/12/08 12:26:22;;;;;;;0.20;0.20;;;;;;;6.06;100.00;98659.97;5049383;28;20458;-48
2021/12/08 12:29:07;;;;;;;0.20;0.20;;;;;;;6.06;100.00;98655.56;5052267;28;20819;-48
2021/12/08 12:31:53;;;;;;;0.30;0.20;;;;;;;5.93;100.00;98657.78;5032440;28;20448;-49
2021/12/08 12:34:22;;;;;;;0.20;0.20;;;;;;;6.04;100.00;98660.03;5050109;28;20504;-48
2021/12/08 12:36:49;;;;;;;0.20;0.20;;;;;;;6.07;100.00;98669.59;5039195;28;20523;-48
2021/12/08 12:39:18;;;;;;;0.20;0.20;;;;;;;6.14;100.00;98658.75;5032113;28;20537;-49
2021/12/08 12:41:58;;;;;;;0.20;0.20;;;;;;;6.02;100.00;98656.56;5045341;28;20447;-49
2021/12/08 12:44:29;;;;;;;0.20;0.10;;;;;;;6.02;100.00;98651.28;5040916;28;20447;-48
2021/12/08 12:47:19;;;;;;;0.20;0.20;;;;;;;6.19;100.00;98646.28;5051866;28;20954;-49
2021/12/08 12:49:59;;;;;;;0.20;0.20;;;;;;;6.08;100.00;98645.81;5039147;28;20464;-49
2021/12/08 12:52:37;;;;;;;0.90;0.90;;;;;;;5.96;100.00;98651.53;5032036;28;20452;-49
2021/12/08 12:55:12;;;;;;;0.20;0.20;;;;;;;5.97;100.00;98639.19;5047955;28;20521;-49
2021/12/08 12:58:03;;;;;;;0.20;0.20;;;;;;;5.98;100.00;98648.81;5051783;28;20935;-49
2021/12/08 13:00:34;;;;;;;0.40;0.40;;;;;;;6.03;100.00;98654.78;5031946;28;20467;-48